Time;durP1;ratioP1;P1;durP2;ratioP2;P2;SDS_P1;SDS_P2;PMS_P1;PMS_P2;Temp;Humidity;BMP_temperature;BMP_pressure;BME280_temperature;BME280_humidity;BME280_pressure;Samples;Min_cycle;Max_cycle;Signal;HPM_P1;HPM_P2
2021/11/25 00:01:01;;;;;;;16.60;11.90;;;;;;;2.61;71.26;100217.92;106189;1316;22969;-55
2021/11/25 00:03:30;;;;;;;17.20;11.10;;;;;;;2.61;71.22;100217.31;106133;1315;22505;-55
2021/11/25 00:06:00;;;;;;;16.60;11.60;;;;;;;2.61;71.14;100217.31;106109;1316;139994;-55
2021/11/25 00:08:29;;;;;;;18.40;11.20;;;;;;;2.61;71.17;100217.89;106242;1315;22513;-55
2021/11/25 00:10:58;;;;;;;18.70;11.10;;;;;;;2.61;71.20;100217.35;105668;1316;139588;-55
2021/11/25 00:13:27;;;;;;;18.00;11.80;;;;;;;2.62;71.38;100222.29;106280;1315;23261;-54
2021/11/25 00:15:55;;;;;;;17.70;11.70;;;;;;;2.63;71.32;100218.98;106036;1316;22471;-54
2021/11/25 00:18:25;;;;;;;19.90;12.20;;;;;;;2.64;71.42;100217.05;106122;1316;138584;-55
2021/11/25 00:20:54;;;;;;;18.90;12.20;;;;;;;2.64;71.43;100216.14;106247;1316;22406;-55
2021/11/25 00:23:22;;;;;;;17.60;12.10;;;;;;;2.64;71.38;100216.27;106086;1315;138394;-55
2021/11/25 00:25:51;;;;;;;20.50;13.30;;;;;;;2.65;71.31;100214.17;106241;1316;23586;-55
2021/11/25 00:28:19;;;;;;;18.70;12.70;;;;;;;2.65;71.24;100211.69;106153;1316;139050;-55
2021/11/25 00:30:47;;;;;;;17.30;12.20;;;;;;;2.64;71.23;100206.75;106086;1316;22455;-55
2021/11/25 00:33:15;;;;;;;18.60;12.20;;;;;;;2.64;71.14;100208.95;106244;1316;23678;-55
2021/11/25 00:35:43;;;;;;;19.90;13.10;;;;;;;2.64;71.29;100208.36;106119;1316;138525;-55
2021/11/25 00:38:12;;;;;;;16.80;11.80;;;;;;;2.60;71.28;100204.77;106254;1315;22524;-55
2021/11/25 00:40:40;;;;;;;17.60;11.60;;;;;;;2.64;71.30;100211.83;106151;1315;139523;-55
2021/11/25 00:43:10;;;;;;;20.20;12.90;;;;;;;2.63;71.24;100210.96;106266;1316;22493;-55
2021/11/25 00:45:38;;;;;;;17.10;12.20;;;;;;;2.64;71.23;100210.06;106090;1315;22425;-55
2021/11/25 00:48:13;;;;;;;19.30;12.40;;;;;;;2.64;71.22;100209.48;106108;1315;138247;-55
2021/11/25 00:50:41;;;;;;;18.00;12.00;;;;;;;2.64;71.38;100209.82;106204;1315;22491;-55
2021/11/25 00:53:10;;;;;;;18.50;11.30;;;;;;;2.64;71.43;100208.73;106126;1315;138311;-55
2021/11/25 00:55:39;;;;;;;16.90;11.40;;;;;;;2.64;71.36;100210.36;106204;1315;22415;-55
2021/11/25 00:58:07;;;;;;;20.10;12.90;;;;;;;2.63;71.42;100207.08;106150;1316;139599;-55
2021/11/25 01:00:39;;;;;;;21.90;13.10;;;;;;;2.63;71.46;100201.48;106248;1315;22558;-55
2021/11/25 01:03:08;;;;;;;20.00;13.10;;;;;;;2.62;71.48;100196.05;106227;1316;22468;-55
2021/11/25 01:05:36;;;;;;;20.70;13.30;;;;;;;2.63;71.55;100197.09;105118;1316;138313;-55
2021/11/25 01:08:04;;;;;;;21.30;13.70;;;;;;;2.62;71.65;100197.87;106177;1316;22522;-55
2021/11/25 01:10:32;;;;;;;20.30;13.20;;;;;;;2.62;71.57;100197.73;106130;1316;138648;-55
2021/11/25 01:13:01;;;;;;;21.90;13.30;;;;;;;2.61;71.54;100196.00;106080;1315;22503;-55
2021/11/25 01:15:30;;;;;;;17.80;12.40;;;;;;;2.61;71.63;100196.37;106260;1316;22422;-55
2021/11/25 01:18:07;;;;;;;21.10;14.50;;;;;;;2.61;71.69;100190.98;106144;1315;139296;-55
2021/11/25 01:20:36;;;;;;;21.30;13.60;;;;;;;2.61;71.75;100191.02;106147;1316;22642;-55
2021/11/25 01:23:06;;;;;;;21.20;13.00;;;;;;;2.58;71.79;100184.23;106120;1316;138600;-55
2021/11/25 01:25:35;;;;;;;18.30;12.30;;;;;;;2.54;71.67;100183.48;106222;1316;22490;-56
2021/11/25 01:28:04;;;;;;;20.40;13.40;;;;;;;2.53;71.87;100184.66;106124;1316;138685;-55
2021/11/25 01:30:32;;;;;;;21.30;13.30;;;;;;;2.49;71.93;100181.35;106182;1316;22431;-55
2021/11/25 01:33:00;;;;;;;20.30;13.40;;;;;;;2.50;71.95;100182.85;106255;1316;22461;-55
2021/11/25 01:37:38;;;;;;;19.30;13.30;;;;;;;2.54;72.10;100181.11;99409;1352;545281;-54
2021/11/25 01:40:09;;;;;;;18.80;13.50;;;;;;;2.53;72.27;100182.30;101440;1325;137942;-54
2021/11/25 01:42:42;;;;;;;22.00;14.00;;;;;;;2.54;72.27;100181.48;105151;1329;22462;-55
2021/11/25 01:45:11;;;;;;;20.30;13.70;;;;;;;2.52;72.24;100183.48;105047;1328;22486;-56
2021/11/25 01:47:45;;;;;;;22.80;14.10;;;;;;;2.51;72.27;100179.38;105023;1329;137579;-56
2021/11/25 01:50:14;;;;;;;20.40;13.80;;;;;;;2.49;72.45;100182.92;104917;1328;216140;-55
2021/11/25 01:52:42;;;;;;;20.80;13.30;;;;;;;2.49;72.35;100181.34;105736;1319;138163;-55
2021/11/25 01:55:14;;;;;;;20.40;13.30;;;;;;;2.50;72.53;100184.25;105831;1322;22457;-55
2021/11/25 01:57:43;;;;;;;23.10;15.10;;;;;;;2.50;72.52;100184.83;105823;1322;22492;-56
2021/11/25 02:00:20;;;;;;;21.60;14.30;;;;;;;2.50;72.63;100184.30;105724;1319;139369;-56
2021/11/25 02:02:49;;;;;;;21.40;14.30;;;;;;;2.51;72.76;100185.16;105840;1322;22372;-56
2021/11/25 02:05:17;;;;;;;24.40;14.80;;;;;;;2.49;72.74;100186.02;105776;1322;141380;-56
2021/11/25 02:07:45;;;;;;;23.20;14.20;;;;;;;2.46;72.76;100177.59;105838;1320;22525;-55
2021/11/25 02:10:13;;;;;;;25.50;15.80;;;;;;;2.47;72.94;100181.64;105727;1319;139042;-55
2021/11/25 02:12:42;;;;;;;24.40;13.90;;;;;;;2.46;73.06;100176.51;104701;1325;22451;-56
2021/11/25 02:15:11;;;;;;;25.50;14.40;;;;;;;2.47;72.91;100178.50;105790;1319;23308;-55
2021/11/25 02:17:40;;;;;;;21.60;13.80;;;;;;;2.49;73.18;100180.51;105693;1322;137983;-55
2021/11/25 02:20:09;;;;;;;25.10;14.60;;;;;;;2.51;73.17;100183.44;106083;1319;22494;-55
2021/11/25 02:22:38;;;;;;;26.90;14.60;;;;;;;2.53;73.04;100188.50;105981;1319;138312;-55
2021/11/25 02:25:09;;;;;;;23.00;14.90;;;;;;;2.52;73.05;100189.25;105403;1319;22520;-55
2021/11/25 02:27:37;;;;;;;21.50;14.60;;;;;;;2.53;73.15;100190.45;106068;1319;23241;-55
2021/11/25 02:30:06;;;;;;;21.20;13.90;;;;;;;2.54;73.14;100189.93;105797;1318;138577;-56
2021/11/25 02:32:38;;;;;;;20.90;14.70;;;;;;;2.55;73.09;100187.50;106022;1318;22485;-55
2021/11/25 02:35:10;;;;;;;23.10;15.20;;;;;;;2.55;73.16;100186.72;105702;1316;138422;-56
2021/11/25 02:37:38;;;;;;;23.20;14.50;;;;;;;2.57;73.17;100185.33;106088;1316;22469;-55
2021/11/25 02:40:15;;;;;;;24.10;14.90;;;;;;;2.58;73.23;100187.84;103613;1317;138312;-55
2021/11/25 02:42:44;;;;;;;21.80;14.70;;;;;;;2.58;73.24;100181.01;106034;1318;23300;-55
2021/11/25 02:45:13;;;;;;;22.10;14.50;;;;;;;2.58;73.22;100182.66;106114;1316;22617;-55
2021/11/25 02:47:42;;;;;;;25.10;15.40;;;;;;;2.56;73.22;100172.98;105939;1316;138232;-55
2021/11/25 02:50:10;;;;;;;25.30;15.40;;;;;;;2.59;73.38;100174.39;106080;1316;22500;-55
2021/11/25 02:52:40;;;;;;;22.00;13.90;;;;;;;2.59;73.35;100172.48;105898;1318;137972;-55
2021/11/25 02:55:09;;;;;;;27.50;15.50;;;;;;;2.59;73.42;100174.39;106086;1319;22640;-55
2021/11/25 02:57:38;;;;;;;20.80;13.80;;;;;;;2.59;73.35;100172.86;106104;1316;22495;-55
2021/11/25 03:00:15;;;;;;;22.20;14.70;;;;;;;2.58;73.40;100170.11;105963;1316;139533;-56
2021/11/25 03:02:43;;;;;;;18.20;13.00;;;;;;;2.58;73.45;100164.70;106086;1316;22658;-55
2021/11/25 03:05:12;;;;;;;22.90;15.20;;;;;;;2.58;73.46;100161.17;105996;1316;138126;-55
2021/11/25 03:07:40;;;;;;;23.30;14.60;;;;;;;2.58;73.43;100161.67;105168;1319;22532;-56
2021/11/25 03:10:09;;;;;;;24.40;15.90;;;;;;;2.57;73.71;100163.16;105989;1316;138125;-55
2021/11/25 03:12:52;;;;;;;20.80;13.70;;;;;;;2.59;73.61;100162.93;106152;1316;23107;-55
2021/11/25 03:15:28;;;;;;;20.40;13.30;;;;;;;2.59;73.64;100163.96;106121;1319;23286;-55
2021/11/25 03:17:57;;;;;;;25.80;14.70;;;;;;;2.59;73.57;100165.16;105982;1316;137782;-55
2021/11/25 03:20:27;;;;;;;25.90;16.30;;;;;;;2.57;73.55;100168.38;106110;1316;22638;-55
2021/11/25 03:22:56;;;;;;;22.50;14.90;;;;;;;2.57;73.86;100163.16;106001;1317;137953;-55
2021/11/25 03:25:25;;;;;;;23.70;15.10;;;;;;;2.58;73.73;100163.66;106140;1316;22508;-55
2021/11/25 03:27:53;;;;;;;21.10;14.50;;;;;;;2.59;73.88;100163.52;105086;1319;22483;-55
2021/11/25 03:30:21;;;;;;;23.40;14.70;;;;;;;2.60;73.88;100160.93;106043;1316;138066;-55
2021/11/25 03:32:50;;;;;;;21.20;15.00;;;;;;;2.62;73.84;100158.84;106106;1316;22471;-56
2021/11/25 03:35:18;;;;;;;23.40;15.50;;;;;;;2.62;73.90;100152.55;105959;1318;138508;-55
2021/11/25 03:37:46;;;;;;;24.10;16.20;;;;;;;2.64;73.87;100153.19;106069;1318;22459;-55
2021/11/25 03:40:14;;;;;;;23.60;15.70;;;;;;;2.64;73.85;100156.42;105985;1318;138157;-55
2021/11/25 03:42:43;;;;;;;20.50;14.30;;;;;;;2.64;73.86;100155.23;106101;1319;22398;-55
2021/11/25 03:45:11;;;;;;;25.80;15.60;;;;;;;2.63;73.97;100148.02;106065;1316;22608;-56
2021/11/25 03:47:44;;;;;;;24.10;15.20;;;;;;;2.65;73.99;100149.61;106039;1319;137814;-55
2021/11/25 03:50:13;;;;;;;21.30;15.10;;;;;;;2.64;73.91;100152.62;106050;1316;22642;-55
2021/11/25 03:52:41;;;;;;;25.20;15.70;;;;;;;2.62;73.85;100155.94;105917;1318;139361;-55
2021/11/25 03:55:11;;;;;;;25.30;15.70;;;;;;;2.60;74.04;100157.96;106263;1316;22577;-55
2021/11/25 03:57:39;;;;;;;23.40;14.80;;;;;;;2.60;74.00;100154.23;106277;1316;22474;-55
2021/11/25 04:00:09;;;;;;;26.50;14.90;;;;;;;2.60;74.09;100155.80;106066;1315;139454;-55
2021/11/25 04:02:44;;;;;;;25.50;15.70;;;;;;;2.61;74.09;100152.34;106274;1316;22386;-55
2021/11/25 04:05:18;;;;;;;;;;;;;;;2.60;74.13;100150.27;106205;1315;139424;-55
2021/11/25 04:07:47;;;;;;;23.50;13.10;;;;;;;2.60;74.16;100153.38;105538;1318;22432;-55
2021/11/25 04:10:16;;;;;;;22.20;14.20;;;;;;;2.60;74.10;100153.58;106163;1315;138514;-56
2021/11/25 04:12:46;;;;;;;20.20;14.50;;;;;;;2.60;74.29;100154.04;106253;1315;24757;-55
2021/11/25 04:15:15;;;;;;;25.50;15.50;;;;;;;2.60;74.10;100154.44;106224;1315;22313;-55
2021/11/25 04:17:45;;;;;;;24.10;16.10;;;;;;;2.61;74.23;100153.02;106129;1315;137813;-55
2021/11/25 04:20:13;;;;;;;26.80;16.40;;;;;;;2.61;74.26;100154.20;106167;1315;22635;-56
2021/11/25 04:22:42;;;;;;;28.20;17.00;;;;;;;2.62;74.23;100154.46;106150;1315;138127;-55
2021/11/25 04:25:10;;;;;;;28.50;16.70;;;;;;;2.62;74.31;100153.34;106246;1315;22656;-55
2021/11/25 04:27:40;;;;;;;24.30;16.70;;;;;;;2.62;74.14;100153.96;106293;1315;22407;-55
2021/11/25 04:35:35;;;;;;;28.70;17.30;;;;;;;2.58;74.54;100148.16;105726;1316;138419;-55
2021/11/25 04:38:16;;;;;;;26.00;16.60;;;;;;;2.57;74.45;100147.09;106261;1317;22401;-55
2021/11/25 04:40:56;;;;;;;25.40;17.80;;;;;;;2.55;74.71;100146.25;106106;1315;138785;-55
2021/11/25 04:43:25;;;;;;;27.60;17.60;;;;;;;2.55;74.70;100146.23;106281;1315;23068;-55
2021/11/25 04:45:53;;;;;;;28.20;16.70;;;;;;;2.56;74.68;100142.70;106276;1315;22385;-55
2021/11/25 04:48:22;;;;;;;26.80;17.00;;;;;;;2.56;74.69;100143.74;106139;1316;138170;-55
2021/11/25 04:50:51;;;;;;;24.40;16.00;;;;;;;2.57;74.73;100143.83;106280;1315;23525;-55
2021/11/25 04:53:20;;;;;;;29.20;18.20;;;;;;;2.56;74.75;100142.83;106143;1315;138317;-55
2021/11/25 04:55:49;;;;;;;26.80;17.30;;;;;;;2.57;74.79;100133.08;105950;1316;22578;-56
2021/11/25 04:58:18;;;;;;;26.20;17.50;;;;;;;2.56;74.84;100130.69;106102;1316;139254;-56
2021/11/25 05:00:46;;;;;;;31.40;17.90;;;;;;;2.57;74.87;100132.48;106311;1316;22447;-56
2021/11/25 05:03:15;;;;;;;29.60;19.20;;;;;;;2.57;74.88;100137.41;105878;1315;23180;-56
2021/11/25 05:05:43;;;;;;;33.10;20.30;;;;;;;2.54;74.81;100123.89;106051;1316;137924;-55
2021/11/25 05:08:12;;;;;;;35.80;20.30;;;;;;;2.56;74.97;100130.16;106240;1315;22410;-56
2021/11/25 05:10:40;;;;;;;29.30;18.90;;;;;;;2.55;75.00;100127.42;106197;1313;138944;-56
2021/11/25 05:13:09;;;;;;;29.70;18.00;;;;;;;2.55;75.10;100129.52;106285;1316;23875;-56
2021/11/25 05:15:37;;;;;;;25.40;16.70;;;;;;;2.55;75.12;100130.85;105730;1316;22560;-56
2021/11/25 05:18:06;;;;;;;27.10;18.30;;;;;;;2.54;75.10;100133.28;106188;1316;138509;-56
2021/11/25 05:20:37;;;;;;;24.10;16.60;;;;;;;2.51;75.13;100126.96;106255;1315;22469;-56
2021/11/25 05:23:06;;;;;;;25.90;16.70;;;;;;;2.53;75.15;100134.34;106060;1315;138032;-56
2021/11/25 05:25:35;;;;;;;27.40;18.40;;;;;;;2.53;75.35;100133.39;106258;1313;23033;-56
2021/11/25 05:28:04;;;;;;;29.70;19.50;;;;;;;2.54;75.21;100135.47;106146;1315;142646;-56
2021/11/25 05:30:32;;;;;;;32.60;20.90;;;;;;;2.54;75.32;100134.60;106253;1315;22833;-56
2021/11/25 05:33:01;;;;;;;35.40;22.10;;;;;;;2.53;75.23;100137.36;106169;1315;22473;-55
2021/11/25 05:35:29;;;;;;;32.90;20.70;;;;;;;2.52;75.30;100135.66;106175;1316;138058;-55
2021/11/25 05:37:57;;;;;;;31.20;19.60;;;;;;;2.53;75.43;100133.80;105344;1320;22300;-55
2021/11/25 05:40:26;;;;;;;34.00;21.30;;;;;;;2.53;75.46;100132.27;103982;1316;138450;-54
2021/11/25 05:42:55;;;;;;;39.20;21.90;;;;;;;2.57;75.46;100136.30;102241;1322;24072;-55
2021/11/25 05:45:24;;;;;;;33.50;17.80;;;;;;;2.58;75.51;100133.49;102233;1317;22747;-55
2021/11/25 05:47:53;;;;;;;28.80;18.30;;;;;;;2.57;75.41;100132.83;106122;1315;139091;-55
2021/11/25 05:50:23;;;;;;;31.10;18.10;;;;;;;2.57;75.39;100129.10;106291;1316;22402;-55
2021/11/25 05:52:53;;;;;;;27.20;16.40;;;;;;;2.57;75.41;100133.03;105566;1318;138701;-55
2021/11/25 05:55:24;;;;;;;36.30;18.10;;;;;;;2.57;75.45;100125.53;106303;1315;22590;-56
2021/11/25 05:57:54;;;;;;;31.80;17.60;;;;;;;2.58;75.38;100133.25;106290;1316;22477;-55
2021/11/25 06:00:22;;;;;;;29.50;17.00;;;;;;;2.61;75.44;100134.33;106190;1313;138099;-55
2021/11/25 06:02:50;;;;;;;29.80;18.10;;;;;;;2.63;75.47;100136.45;106252;1315;22452;-56
2021/11/25 06:05:20;;;;;;;27.70;17.70;;;;;;;2.63;75.43;100137.80;106087;1315;140655;-57
2021/11/25 06:07:48;;;;;;;24.80;15.10;;;;;;;2.64;75.37;100135.36;106276;1316;23042;-55
2021/11/25 06:10:18;;;;;;;29.20;16.40;;;;;;;2.66;75.49;100132.69;105839;1316;138329;-57
2021/11/25 06:12:47;;;;;;;24.70;15.20;;;;;;;2.66;75.30;100136.21;106221;1315;23149;-56
2021/11/25 06:15:16;;;;;;;23.00;16.20;;;;;;;2.67;75.31;100136.11;106173;1315;22543;-56
2021/11/25 06:18:04;;;;;;;25.60;17.20;;;;;;;2.67;75.30;100138.09;106096;1315;138366;-54
2021/11/25 06:20:32;;;;;;;26.60;16.60;;;;;;;2.66;75.32;100136.21;106262;1315;22456;-54
2021/11/25 06:23:00;;;;;;;23.00;15.00;;;;;;;2.66;75.51;100133.33;106042;1316;138836;-54
2021/11/25 06:25:32;;;;;;;28.50;15.90;;;;;;;2.67;75.42;100133.98;106061;1315;22588;-54
2021/11/25 06:28:00;;;;;;;25.50;17.30;;;;;;;2.68;75.43;100132.19;106240;1316;22466;-54
2021/11/25 06:30:29;;;;;;;25.90;15.60;;;;;;;2.69;75.44;100134.05;105179;1322;138365;-54
2021/11/25 06:32:57;;;;;;;29.80;16.60;;;;;;;2.70;75.29;100131.55;106258;1315;22481;-54
2021/11/25 06:35:26;;;;;;;25.80;16.00;;;;;;;2.72;75.36;100136.02;106194;1316;139464;-54
2021/11/25 06:37:54;;;;;;;26.70;16.70;;;;;;;2.70;75.45;100134.61;106107;1315;23448;-54
2021/11/25 06:40:28;;;;;;;25.70;16.10;;;;;;;2.72;75.47;100139.36;106139;1315;138347;-54
2021/11/25 06:43:02;;;;;;;25.30;15.10;;;;;;;2.74;75.41;100135.27;106288;1313;23292;-54
2021/11/25 06:45:31;;;;;;;27.20;16.30;;;;;;;2.76;75.60;100137.30;106276;1316;22605;-54
2021/11/25 06:47:59;;;;;;;31.70;16.30;;;;;;;2.76;75.47;100140.15;106134;1315;138571;-54
2021/11/25 06:50:28;;;;;;;28.50;16.70;;;;;;;2.77;75.44;100139.09;106202;1315;22524;-54
2021/11/25 06:52:56;;;;;;;29.50;18.40;;;;;;;2.78;75.34;100140.55;106191;1316;139050;-54
2021/11/25 06:55:25;;;;;;;33.10;19.10;;;;;;;2.79;75.30;100141.26;106254;1315;22533;-54
2021/11/25 06:57:53;;;;;;;31.30;20.10;;;;;;;2.78;75.26;100141.50;106172;1315;22440;-54
2021/11/25 07:00:25;;;;;;;39.80;23.50;;;;;;;2.77;75.42;100139.67;106159;1314;139066;-54
2021/11/25 07:02:54;;;;;;;68.30;32.90;;;;;;;2.77;75.31;100139.83;106298;1316;22583;-54
2021/11/25 07:05:23;;;;;;;91.50;36.80;;;;;;;2.79;75.25;100139.44;106199;1316;138073;-54
2021/11/25 07:07:51;;;;;;;96.30;41.50;;;;;;;2.81;75.37;100139.51;106273;1315;23357;-54
2021/11/25 07:10:20;;;;;;;70.20;30.30;;;;;;;2.84;75.23;100138.55;106195;1316;138376;-54
2021/11/25 07:12:49;;;;;;;46.10;22.00;;;;;;;2.86;75.17;100138.74;106310;1315;22547;-54
2021/11/25 07:15:22;;;;;;;50.50;24.90;;;;;;;2.89;75.35;100137.50;106241;1313;23209;-54
2021/11/25 07:18:07;;;;;;;63.60;24.30;;;;;;;2.91;75.23;100142.60;106149;1316;139892;-55
2021/11/25 07:20:38;;;;;;;65.00;24.90;;;;;;;2.92;75.14;100144.58;106228;1315;22449;-54
2021/11/25 07:23:06;;;;;;;45.70;19.90;;;;;;;2.93;75.01;100145.48;106135;1315;138394;-54
2021/11/25 07:25:34;;;;;;;41.10;19.60;;;;;;;2.93;75.09;100141.11;106282;1316;22398;-54
2021/11/25 07:28:03;;;;;;;43.80;18.80;;;;;;;2.93;75.02;100136.06;106297;1316;22460;-54
2021/11/25 07:30:31;;;;;;;39.10;19.30;;;;;;;2.95;75.08;100136.65;106129;1315;137923;-54
2021/11/25 07:33:00;;;;;;;41.30;19.90;;;;;;;2.95;74.98;100139.67;106283;1315;22448;-54
2021/11/25 07:35:28;;;;;;;30.90;16.10;;;;;;;2.97;75.07;100138.61;106155;1316;139628;-55
2021/11/25 07:37:57;;;;;;;41.10;18.50;;;;;;;2.97;74.96;100141.48;106272;1316;23306;-54
2021/11/25 07:40:26;;;;;;;43.30;19.90;;;;;;;2.97;75.02;100141.48;103947;1316;138389;-56
2021/11/25 07:42:55;;;;;;;44.70;19.70;;;;;;;2.97;74.99;100142.73;102182;1315;22585;-56
2021/11/25 07:45:27;;;;;;;35.80;18.80;;;;;;;2.97;74.97;100140.69;106304;1316;22332;-54
2021/11/25 07:47:55;;;;;;;32.20;17.00;;;;;;;2.99;75.05;100138.69;105357;1319;138119;-54
2021/11/25 07:50:26;;;;;;;34.10;18.60;;;;;;;3.00;75.06;100140.15;106194;1316;23096;-54
2021/11/25 07:52:55;;;;;;;35.10;17.50;;;;;;;3.02;74.97;100138.25;106193;1316;138481;-54
2021/11/25 07:55:24;;;;;;;39.40;17.80;;;;;;;3.04;75.03;100137.52;106291;1316;22660;-54
2021/11/25 07:57:53;;;;;;;39.20;18.20;;;;;;;3.05;74.89;100135.77;106272;1315;22533;-54
2021/11/25 08:00:22;;;;;;;43.10;18.20;;;;;;;3.05;74.73;100135.20;106191;1315;138961;-54
2021/11/25 08:02:51;;;;;;;40.60;19.70;;;;;;;3.05;74.78;100135.90;106204;1315;23110;-54
2021/11/25 08:05:20;;;;;;;44.40;18.80;;;;;;;3.07;74.74;100135.71;106230;1315;138310;-54
2021/11/25 08:07:55;;;;;;;34.60;17.20;;;;;;;3.10;74.79;100134.63;106185;1315;22451;-54
2021/11/25 08:10:25;;;;;;;48.70;19.80;;;;;;;3.11;74.76;100134.63;106167;1316;138453;-54
2021/11/25 08:13:03;;;;;;;39.60;19.30;;;;;;;3.13;74.63;100137.10;106227;1316;22469;-54
2021/11/25 08:15:43;;;;;;;32.70;17.50;;;;;;;3.14;74.53;100133.47;106228;1316;22476;-54
2021/11/25 08:18:12;;;;;;;33.10;18.10;;;;;;;3.15;74.44;100132.24;106192;1313;138792;-54
2021/11/25 08:20:40;;;;;;;36.30;17.30;;;;;;;3.17;74.31;100136.73;106279;1315;22490;-54
2021/11/25 08:23:08;;;;;;;29.10;17.30;;;;;;;3.18;74.39;100136.51;106180;1316;139292;-54
2021/11/25 08:25:37;;;;;;;35.40;19.90;;;;;;;3.20;74.14;100134.90;106286;1315;22506;-54
2021/11/25 08:28:05;;;;;;;38.70;20.30;;;;;;;3.20;74.21;100136.45;106258;1315;22460;-54
2021/11/25 08:30:33;;;;;;;27.00;17.40;;;;;;;3.20;74.20;100129.85;106126;1315;139029;-54
2021/11/25 08:33:02;;;;;;;34.20;20.20;;;;;;;3.21;74.27;100127.92;106314;1315;22435;-54
2021/11/25 08:35:31;;;;;;;32.20;19.40;;;;;;;3.22;74.18;100123.16;106273;1316;138906;-54
2021/11/25 08:38:02;;;;;;;29.80;19.20;;;;;;;3.25;74.15;100125.52;106086;1316;22403;-54
2021/11/25 08:40:32;;;;;;;36.30;18.40;;;;;;;3.28;74.28;100118.33;106253;1316;139904;-54
2021/11/25 08:43:00;;;;;;;41.90;20.10;;;;;;;3.30;74.02;100114.33;106299;1315;22381;-53
2021/11/25 08:45:29;;;;;;;37.30;20.00;;;;;;;3.32;74.25;100113.95;106223;1316;22644;-54
2021/11/25 08:47:58;;;;;;;33.40;17.40;;;;;;;3.35;73.98;100114.30;106157;1316;138638;-54
2021/11/25 08:50:27;;;;;;;32.00;18.00;;;;;;;3.37;74.12;100108.98;106119;1315;22616;-54
2021/11/25 08:52:56;;;;;;;32.80;17.10;;;;;;;3.39;73.87;100106.23;106145;1316;138611;-54
2021/11/25 08:55:24;;;;;;;30.00;15.60;;;;;;;3.41;73.94;100102.80;105740;1319;22532;-54
2021/11/25 08:57:53;;;;;;;30.40;16.90;;;;;;;3.44;74.02;100103.65;106323;1316;22447;-54
2021/11/25 09:00:22;;;;;;;33.60;17.90;;;;;;;3.45;73.87;100098.92;106147;1315;138306;-55
2021/11/25 09:02:52;;;;;;;26.60;17.10;;;;;;;3.48;73.68;100097.19;106288;1316;22388;-55
2021/11/25 09:05:22;;;;;;;30.40;17.30;;;;;;;3.50;73.46;100096.41;106032;1315;138869;-55
2021/11/25 09:07:50;;;;;;;34.50;18.70;;;;;;;3.52;73.64;100088.05;106254;1316;23947;-55
2021/11/25 09:10:18;;;;;;;33.80;18.30;;;;;;;3.55;73.75;100086.42;106068;1315;138643;-55
2021/11/25 09:12:48;;;;;;;25.80;16.40;;;;;;;3.58;73.69;100086.95;106224;1316;22653;-54
2021/11/25 09:15:19;;;;;;;26.80;16.20;;;;;;;3.61;73.79;100084.71;106274;1315;22558;-55
2021/11/25 09:17:47;;;;;;;20.70;15.00;;;;;;;3.65;73.62;100079.30;106184;1316;138672;-55
2021/11/25 09:20:31;;;;;;;28.00;16.50;;;;;;;3.70;73.28;100072.74;106301;1316;23455;-54
2021/11/25 09:23:01;;;;;;;30.50;16.20;;;;;;;3.74;73.42;100071.70;105978;1316;138332;-54
2021/11/25 09:25:30;;;;;;;26.50;17.30;;;;;;;3.76;73.09;100068.32;105376;1322;22522;-55
2021/11/25 09:28:01;;;;;;;29.00;17.30;;;;;;;3.79;73.23;100067.59;106201;1315;22482;-54
2021/11/25 09:30:30;;;;;;;25.80;16.20;;;;;;;3.82;73.04;100066.79;106187;1316;138018;-55
2021/11/25 09:32:59;;;;;;;27.70;16.40;;;;;;;3.85;72.69;100062.79;106263;1315;23664;-55
2021/11/25 09:35:27;;;;;;;28.00;16.50;;;;;;;3.89;72.81;100063.80;106207;1317;138156;-60
2021/11/25 09:37:56;;;;;;;27.00;17.00;;;;;;;3.92;72.68;100063.17;106261;1316;23328;-60
2021/11/25 09:40:27;;;;;;;25.60;16.40;;;;;;;3.96;72.48;100061.48;106200;1316;139426;-57
2021/11/25 09:42:55;;;;;;;24.80;15.80;;;;;;;3.98;72.39;100064.40;106224;1315;22286;-57
2021/11/25 09:45:24;;;;;;;25.80;16.80;;;;;;;3.98;72.47;100061.50;106252;1316;22400;-58
2021/11/25 09:47:55;;;;;;;27.00;16.60;;;;;;;3.99;71.90;100062.41;106118;1314;138406;-57
2021/11/25 09:50:25;;;;;;;23.80;16.00;;;;;;;4.03;72.04;100057.88;106202;1315;211258;-57
2021/11/25 09:52:54;;;;;;;24.40;16.40;;;;;;;4.05;72.06;100057.85;106185;1315;139110;-57
2021/11/25 09:55:23;;;;;;;23.00;16.30;;;;;;;4.08;71.81;100055.67;106189;1315;22555;-57
2021/11/25 09:57:51;;;;;;;26.40;17.40;;;;;;;4.09;71.91;100048.91;106291;1315;22447;-57
2021/11/25 10:00:20;;;;;;;25.40;16.30;;;;;;;4.10;71.50;100049.09;106113;1315;139471;-57
2021/11/25 10:02:49;;;;;;;27.00;16.00;;;;;;;4.11;71.65;100046.23;106319;1316;23186;-57
2021/11/25 10:05:17;;;;;;;24.50;16.80;;;;;;;4.13;71.50;100043.51;106189;1316;139039;-56
2021/11/25 10:07:47;;;;;;;28.40;16.90;;;;;;;4.15;71.46;100040.39;106299;1316;22524;-57
2021/11/25 10:10:36;;;;;;;25.80;17.10;;;;;;;4.15;70.97;100038.73;106157;1315;138558;-57
2021/11/25 10:13:14;;;;;;;26.10;17.00;;;;;;;4.15;71.10;100030.23;106318;1316;22408;-57
2021/11/25 10:15:50;;;;;;;22.70;15.50;;;;;;;4.15;70.91;100026.20;106346;1315;23242;-56
2021/11/25 10:18:18;;;;;;;28.50;17.40;;;;;;;4.16;70.99;100021.20;106158;1316;137998;-57
2021/11/25 10:20:48;;;;;;;25.50;17.10;;;;;;;4.18;70.80;100024.26;105584;1321;22460;-56
2021/11/25 10:23:21;;;;;;;29.20;18.10;;;;;;;4.20;70.64;100018.94;106127;1314;139206;-57
2021/11/25 10:25:56;;;;;;;22.90;16.30;;;;;;;4.21;70.73;100018.98;106224;1316;22601;-57
2021/11/25 10:28:35;;;;;;;24.70;16.90;;;;;;;4.22;70.82;100012.39;106185;1315;138372;-57
2021/11/25 10:31:11;;;;;;;26.10;16.80;;;;;;;4.22;70.43;100007.79;106301;1316;22518;-57
2021/11/25 10:33:56;;;;;;;22.90;15.20;;;;;;;4.22;70.72;100004.30;106299;1316;22644;-57
2021/11/25 10:41:58;;;;;;;20.90;14.60;;;;;;;4.22;70.43;99991.27;106207;1316;139474;-57
2021/11/25 10:44:40;;;;;;;21.80;15.30;;;;;;;4.21;70.38;99988.83;106251;1315;23387;-56
2021/11/25 10:47:13;;;;;;;22.30;15.20;;;;;;;4.20;70.32;99988.03;106170;1316;139356;-55
2021/11/25 10:49:51;;;;;;;64.30;40.40;;;;;;;4.20;70.36;99985.24;106264;1317;22465;-54
2021/11/25 10:52:39;;;;;;;69.70;48.20;;;;;;;4.18;70.34;99979.33;106174;1317;139111;-55
2021/11/25 10:55:15;;;;;;;132.90;85.40;;;;;;;4.23;70.34;99976.46;106269;1315;22508;-57
2021/11/25 10:57:44;;;;;;;31.00;22.00;;;;;;;4.27;70.13;99974.27;106283;1315;22495;-54
2021/11/25 11:00:36;;;;;;;23.00;17.20;;;;;;;4.28;69.84;99972.30;106178;1316;138139;-56
2021/11/25 11:03:08;;;;;;;24.60;15.70;;;;;;;4.27;69.66;99964.90;106195;1315;22468;-56
2021/11/25 11:05:52;;;;;;;25.40;16.50;;;;;;;4.28;69.85;99962.08;106106;1315;138533;-56
2021/11/25 11:08:25;;;;;;;24.70;16.60;;;;;;;4.29;69.72;99956.90;106308;1316;23099;-57
2021/11/25 11:10:54;;;;;;;25.50;16.20;;;;;;;4.27;69.64;99949.39;106105;1315;138656;-56
2021/11/25 11:16:23;;;;;;;25.00;16.00;;;;;;;4.25;69.71;99938.67;106095;1316;22513;-56
2021/11/25 11:18:56;;;;;;;25.90;15.70;;;;;;;4.25;69.74;99935.45;106086;1316;137821;-56
2021/11/25 11:21:48;;;;;;;24.90;16.10;;;;;;;4.28;69.65;99930.05;106242;1316;22483;-56
2021/11/25 11:24:18;;;;;;;22.10;15.30;;;;;;;4.31;69.87;99931.14;106152;1319;139622;-56
2021/11/25 11:26:52;;;;;;;20.40;14.20;;;;;;;4.33;69.52;99927.39;106249;1316;22393;-56
2021/11/25 11:29:26;;;;;;;21.90;14.30;;;;;;;4.33;69.02;99924.97;106148;1315;138235;-56
2021/11/25 11:31:59;;;;;;;19.60;14.10;;;;;;;4.34;68.73;99922.19;106283;1316;23516;-57
2021/11/25 11:34:27;;;;;;;19.70;14.80;;;;;;;4.31;68.62;99914.27;106183;1312;23267;-56
2021/11/25 11:36:56;;;;;;;18.80;13.70;;;;;;;4.33;68.55;99913.15;106067;1316;137837;-56